Etusivu
METAR-TAF:

METAR-TAF

Lentoasemat :

Kuningas Abdilazizin kansainvälinen lentoasema

Jedda, Saudi-Arabia

Leveyspiiri: 21-42N, Pituuspiiri: 039-11E, korkeus merenpinnasta: 15 m

Tämänhetkinen sää

Tämä raportti tehtiin 27 minuuttia sitten, kello 09.00 UTC
Tuuli 8 kn lännestä/lounaasta
Lämpötila 35°C
Kosteus 47%
Ilmanpaine 1007 hPa
Näkyvyys 10 km tai enemmän
ei pilviä alle 1500 m:ssä eikä cumulonimbus-pilviä

METAR: OEJN 200900Z 24008KT CAVOK 35/22 Q1007 NOSIG

Aika: 12:27 (09:27 UTC)

Sääennuste

Tämä raportti tehtiin 4 tuntia ja 27 minuuttia sitten, kello 05.00 UTC
Ennuste voimassa 20. päivästä klo 06 UTC - 21. päivään klo 12 UTC
Tuuli 12 kn lännestä/lounaasta
Näkyvyys 10 km tai enemmän
Muutamia pilviä 4000 ft:n korkeudessa
Hajanaisia pilviä 10000 ft:n korkeudessa
Tulossa
20. päivästä klo 12 UTC - 20. päivään klo 14 UTC
Tuuli 10 kn pohjoisen/luoteesta

TAF: OEJN 200500Z 2006/2112 25012KT 9999 FEW040 SCT100 BECMG 2012/2014 33010KT

Säähavainnot ja -ennusteet yli 4000 lentoasemalta (METAR- ja TAF-raportit).

Käytössä olevat sääasemat on merkitty karttaan keltaisilla ja punaisilla pisteillä.

Aseta hiiri pisteen päälle nähdäksesi sääaseman nimen.

Klikkaa sitten nähdäksesi säähavainnot ja -ennusteet.

Kartan vaihtaminen: klikkaa mustalla rastilla varustettuja vihreitä pisteitä, niin voit zoomata sisään; viivalla varustettua vihreää pistettä, niin voit zoomata ulos tai vihreitä nuolia, niin pääset viereisille kartoille.


METAR-TAF: